createdAt,value
2022-08-22T00:02:00.321Z,22.70
2022-08-22T00:02:58.875Z,23.00
2022-08-22T00:03:01.116Z,23.80
2022-08-22T00:03:03.073Z,22.90
2022-08-22T00:03:08.059Z,23.20
2022-08-22T00:04:33.327Z,22.60
2022-08-22T00:07:05.365Z,22.40
2022-08-22T00:09:36.423Z,22.30
2022-08-22T00:12:08.240Z,22.20
2022-08-22T00:14:37.080Z,22.10
2022-08-22T00:17:10.048Z,22.20
2022-08-22T00:19:45.248Z,22.20
2022-08-22T00:22:18.106Z,22.20
2022-08-22T00:24:47.962Z,22.20
2022-08-22T00:27:16.690Z,22.20
2022-08-22T00:29:45.663Z,22.10
2022-08-22T00:32:14.369Z,21.80
2022-08-22T00:34:46.348Z,21.90
2022-08-22T00:37:19.107Z,21.90
2022-08-22T00:39:48.726Z,22.00
2022-08-22T00:42:29.316Z,22.10
2022-08-22T00:45:12.719Z,22.10
2022-08-22T00:47:51.460Z,22.10
2022-08-22T00:50:39.489Z,22.00
2022-08-22T00:53:26.138Z,22.00
2022-08-22T00:55:58.336Z,22.00
2022-08-22T00:58:49.391Z,22.00
2022-08-22T01:01:20.093Z,22.10
2022-08-22T01:03:53.523Z,22.10
2022-08-22T01:06:24.869Z,21.90
2022-08-22T01:09:01.383Z,21.90
2022-08-22T01:11:49.448Z,21.90
2022-08-22T01:14:34.180Z,22.00
2022-08-22T01:17:17.532Z,22.00
2022-08-22T01:20:02.487Z,22.10
2022-08-22T01:22:47.074Z,22.20
2022-08-22T01:25:35.135Z,22.20
2022-08-22T01:28:23.624Z,22.30
2022-08-22T01:31:09.928Z,22.20
2022-08-22T01:33:52.037Z,22.20
2022-08-22T01:36:38.522Z,22.20
2022-08-22T01:39:23.499Z,22.10
2022-08-22T01:41:59.728Z,22.20
2022-08-22T01:44:40.525Z,22.30
2022-08-22T01:47:11.703Z,22.50
2022-08-22T01:49:44.094Z,22.50
2022-08-22T01:52:15.490Z,22.60
2022-08-22T01:54:49.015Z,22.40
2022-08-22T01:57:16.413Z,22.20
2022-08-22T01:59:45.462Z,22.20
2022-08-22T02:02:33.173Z,22.20
2022-08-22T02:05:03.073Z,21.90
2022-08-22T02:07:33.642Z,21.80
2022-08-22T02:10:06.346Z,21.90
2022-08-22T02:12:37.184Z,21.90
2022-08-22T02:15:08.004Z,22.00
2022-08-22T02:17:48.050Z,22.10
2022-08-22T02:20:20.713Z,22.20
2022-08-22T02:22:55.110Z,22.10
2022-08-22T02:25:23.722Z,21.90
2022-08-22T02:27:53.385Z,21.90
2022-08-22T02:30:21.702Z,21.90
2022-08-22T02:32:56.267Z,21.90
2022-08-22T02:35:27.235Z,22.00
2022-08-22T02:37:59.898Z,22.00
2022-08-22T02:40:30.599Z,22.10
2022-08-22T02:43:00.049Z,22.20
2022-08-22T02:45:30.894Z,22.20
2022-08-22T02:48:01.147Z,22.20
2022-08-22T02:50:33.113Z,22.30
2022-08-22T02:53:05.473Z,22.40
2022-08-22T02:55:46.224Z,22.40
2022-08-22T02:58:18.310Z,22.50
2022-08-22T03:00:47.539Z,22.50
2022-08-22T03:03:16.287Z,22.50
2022-08-22T03:05:48.394Z,22.60
2022-08-22T03:08:21.246Z,22.70
2022-08-22T03:10:54.658Z,22.70
2022-08-22T03:13:25.620Z,22.60
2022-08-22T03:15:53.412Z,22.60
2022-08-22T03:18:24.673Z,22.60
2022-08-22T03:20:54.359Z,22.60
2022-08-22T03:23:28.133Z,22.50
2022-08-22T03:25:59.318Z,22.50
2022-08-22T03:28:27.637Z,22.50
2022-08-22T03:30:59.490Z,22.60
2022-08-22T03:33:27.940Z,22.70
2022-08-22T03:35:58.355Z,22.60
2022-08-22T03:38:28.662Z,22.60
2022-08-22T03:41:04.494Z,22.40
2022-08-22T03:43:38.767Z,22.40
2022-08-22T03:46:18.936Z,22.30
2022-08-22T03:48:56.848Z,22.40
2022-08-22T03:51:32.168Z,22.30
2022-08-22T03:54:15.340Z,22.40
2022-08-22T03:57:01.171Z,22.40
2022-08-22T03:59:55.389Z,22.30
2022-08-22T04:02:42.860Z,22.30
2022-08-22T04:05:39.629Z,22.30
2022-08-22T04:08:29.023Z,22.30
2022-08-22T04:11:05.219Z,22.40
2022-08-22T04:13:44.183Z,22.30
2022-08-22T04:16:32.712Z,22.10
2022-08-22T04:19:15.681Z,22.20
2022-08-22T04:21:52.149Z,22.30
2022-08-22T04:24:34.075Z,22.30
2022-08-22T04:27:07.170Z,22.20
2022-08-22T04:29:37.140Z,22.20
2022-08-22T04:32:11.573Z,22.20
2022-08-22T04:34:43.253Z,22.20
2022-08-22T04:37:14.458Z,22.30
2022-08-22T04:39:45.247Z,22.30
2022-08-22T04:44:36.745Z,22.30
2022-08-22T04:47:06.359Z,22.30
2022-08-22T04:49:35.464Z,22.30
2022-08-22T04:52:08.826Z,22.30
2022-08-22T04:54:40.850Z,22.10
2022-08-22T04:57:14.541Z,22.20
2022-08-22T04:59:42.981Z,22.20
2022-08-22T05:02:12.226Z,22.10
2022-08-22T05:04:41.121Z,22.10
2022-08-22T05:07:10.861Z,22.10
2022-08-22T05:09:42.933Z,22.00
2022-08-22T05:12:12.058Z,22.10
2022-08-22T05:14:40.124Z,22.20
2022-08-22T05:17:09.715Z,22.20
2022-08-22T05:19:38.377Z,22.20
2022-08-22T05:22:11.803Z,22.00
2022-08-22T05:24:39.831Z,22.00
2022-08-22T05:27:11.248Z,22.10
2022-08-22T05:29:39.803Z,22.10
2022-08-22T05:32:12.563Z,22.20
2022-08-22T05:34:42.240Z,22.30
2022-08-22T05:37:12.559Z,22.30
2022-08-22T05:39:40.685Z,22.40
2022-08-22T05:42:12.981Z,22.60
2022-08-22T05:44:40.237Z,22.70
2022-08-22T05:47:18.923Z,22.70
2022-08-22T05:49:49.696Z,22.80
2022-08-22T05:52:24.923Z,23.00
2022-08-22T05:54:53.778Z,23.10
2022-08-22T05:57:23.810Z,23.10
2022-08-22T05:59:53.791Z,23.20
2022-08-22T06:02:23.914Z,23.40
2022-08-22T06:04:54.624Z,23.50
2022-08-22T06:07:25.895Z,23.40
2022-08-22T06:10:03.175Z,23.50
2022-08-22T06:12:34.311Z,23.50
2022-08-22T06:15:11.809Z,23.60
2022-08-22T06:17:42.592Z,23.90
2022-08-22T06:20:12.352Z,24.00
2022-08-22T06:22:45.286Z,24.20
2022-08-22T06:25:15.422Z,24.40
2022-08-22T06:27:42.996Z,24.40
2022-08-22T06:30:13.413Z,24.60
2022-08-22T06:33:00.132Z,24.30
2022-08-22T06:35:29.255Z,24.00
2022-08-22T06:37:58.985Z,24.50
2022-08-22T06:40:28.199Z,24.80
2022-08-22T06:42:55.901Z,25.10
2022-08-22T06:45:25.237Z,25.30
2022-08-22T06:47:58.010Z,25.60
2022-08-22T06:50:31.054Z,25.70
2022-08-22T06:52:59.631Z,25.60
2022-08-22T06:55:27.401Z,25.80
2022-08-22T06:57:56.253Z,25.90
2022-08-22T07:00:23.862Z,26.10
2022-08-22T07:02:53.154Z,26.00
2022-08-22T07:05:22.538Z,26.40
2022-08-22T07:07:50.250Z,27.10
2022-08-22T07:10:18.168Z,29.10
2022-08-22T07:15:31.017Z,30.70
2022-08-22T07:17:59.556Z,35.90
2022-08-22T07:20:28.094Z,37.50
2022-08-22T07:22:57.353Z,38.30
2022-08-22T07:25:25.196Z,39.90
2022-08-22T07:28:03.868Z,41.00
2022-08-22T07:30:48.971Z,41.20
2022-08-22T07:33:26.502Z,39.30
2022-08-22T07:35:59.115Z,38.70
2022-08-22T07:38:31.531Z,38.70
2022-08-22T07:41:01.810Z,37.50
2022-08-22T07:43:31.310Z,35.80
2022-08-22T07:46:02.815Z,34.70
2022-08-22T07:48:32.752Z,33.00
2022-08-22T07:51:01.915Z,32.50
2022-08-22T07:53:34.097Z,30.90
2022-08-22T07:56:02.509Z,29.80
2022-08-22T07:58:31.454Z,29.50
2022-08-22T08:01:00.403Z,29.00
2022-08-22T08:03:28.759Z,28.30
2022-08-22T08:05:55.927Z,28.10
2022-08-22T08:08:25.006Z,28.20
2022-08-22T08:10:54.476Z,28.60
2022-08-22T08:13:24.583Z,28.70
2022-08-22T08:15:51.989Z,28.80
2022-08-22T08:18:22.060Z,27.90
2022-08-22T08:20:50.008Z,28.00
2022-08-22T08:23:23.779Z,28.30
2022-08-22T08:26:03.313Z,28.90
2022-08-22T08:28:36.285Z,29.40
2022-08-22T08:31:09.679Z,29.60
2022-08-22T08:33:39.891Z,29.50
2022-08-22T08:36:11.291Z,29.60
2022-08-22T08:38:42.292Z,29.50
2022-08-22T08:41:30.743Z,29.30
2022-08-22T08:44:00.319Z,29.10
2022-08-22T08:46:50.248Z,29.30
2022-08-22T08:49:38.824Z,29.40
2022-08-22T08:52:20.400Z,30.30
2022-08-22T08:54:56.494Z,30.90
2022-08-22T08:57:31.666Z,31.90
2022-08-22T09:00:02.059Z,32.80
2022-08-22T09:02:38.186Z,33.00
2022-08-22T09:05:38.257Z,33.40
2022-08-22T09:08:24.633Z,34.20
2022-08-22T09:11:09.705Z,34.70
2022-08-22T09:13:45.905Z,34.80
2022-08-22T09:16:31.580Z,35.40
2022-08-22T09:19:16.559Z,36.20
2022-08-22T09:22:02.177Z,36.90
2022-08-22T09:24:47.029Z,37.40
2022-08-22T09:27:16.158Z,38.20
2022-08-22T09:29:51.692Z,38.00
2022-08-22T09:32:28.737Z,37.80
2022-08-22T09:34:59.776Z,38.80
2022-08-22T09:37:35.059Z,39.40
2022-08-22T09:40:06.264Z,38.60
2022-08-22T09:42:40.032Z,38.60
2022-08-22T09:45:24.525Z,37.40
2022-08-22T09:47:58.129Z,37.50
2022-08-22T09:50:43.277Z,38.50
2022-08-22T09:53:18.744Z,38.10
2022-08-22T09:55:51.427Z,38.60
2022-08-22T09:58:23.615Z,38.50
2022-08-22T10:00:55.538Z,38.80
2022-08-22T10:03:27.878Z,39.70
2022-08-22T10:06:00.412Z,39.70
2022-08-22T10:08:36.841Z,38.40
2022-08-22T10:11:22.895Z,37.40
2022-08-22T10:14:00.573Z,36.40
2022-08-22T10:16:37.998Z,36.10
2022-08-22T10:19:10.640Z,36.70
2022-08-22T10:21:39.693Z,36.70
2022-08-22T10:24:25.186Z,37.10
2022-08-22T10:26:54.553Z,37.40
2022-08-22T10:29:38.716Z,36.50
2022-08-22T10:32:14.720Z,36.70
2022-08-22T10:34:44.641Z,36.50
2022-08-22T10:37:17.558Z,36.30
2022-08-22T10:39:58.191Z,36.30
2022-08-22T10:42:28.008Z,36.10
2022-08-22T10:45:03.755Z,36.30
2022-08-22T10:47:34.447Z,37.20
2022-08-22T10:50:11.546Z,37.80
2022-08-22T10:52:45.035Z,39.80
2022-08-22T10:55:17.519Z,40.80
2022-08-22T10:57:53.999Z,40.00
2022-08-22T11:00:33.054Z,39.10
2022-08-22T11:03:09.908Z,38.50
2022-08-22T11:05:41.437Z,39.00
2022-08-22T11:08:34.603Z,38.50
2022-08-22T11:11:09.144Z,38.00
2022-08-22T11:13:42.349Z,37.70
2022-08-22T11:16:19.299Z,36.80
2022-08-22T11:19:02.579Z,37.30
2022-08-22T11:21:38.376Z,38.60
2022-08-22T11:24:17.780Z,39.70
2022-08-22T11:27:04.404Z,41.00
2022-08-22T11:29:38.821Z,41.80
2022-08-22T11:32:13.801Z,43.30
2022-08-22T11:34:50.100Z,42.60
2022-08-22T11:37:20.524Z,41.10
2022-08-22T11:39:59.409Z,40.40
2022-08-22T11:42:31.299Z,39.70
2022-08-22T11:44:59.670Z,40.10
2022-08-22T11:47:29.293Z,39.70
2022-08-22T11:49:59.347Z,38.90
2022-08-22T11:52:30.775Z,38.30
2022-08-22T11:55:19.992Z,39.00
2022-08-22T11:57:52.350Z,39.90
2022-08-22T12:00:29.162Z,39.50
2022-08-22T12:03:09.043Z,39.10
2022-08-22T12:05:37.533Z,38.90
2022-08-22T12:08:11.248Z,37.70
2022-08-22T12:10:42.851Z,36.90
2022-08-22T12:13:17.019Z,36.00
2022-08-22T12:15:49.019Z,35.80
2022-08-22T12:18:27.779Z,35.40
2022-08-22T12:20:59.147Z,35.20
2022-08-22T12:23:48.999Z,35.60
2022-08-22T12:26:22.862Z,35.90
2022-08-22T12:28:59.216Z,36.00
2022-08-22T12:31:31.372Z,35.90
2022-08-22T12:34:03.098Z,35.80
2022-08-22T12:36:54.499Z,35.40
2022-08-22T12:39:42.579Z,35.40
2022-08-22T12:42:16.756Z,36.30
2022-08-22T12:44:52.896Z,36.60
2022-08-22T12:47:31.906Z,36.90
2022-08-22T12:50:06.743Z,37.10
2022-08-22T12:52:46.529Z,37.10
2022-08-22T12:55:25.064Z,36.80
2022-08-22T12:57:59.030Z,36.90
2022-08-22T13:00:34.721Z,37.20
2022-08-22T13:03:03.446Z,37.60
2022-08-22T13:05:34.282Z,38.00
2022-08-22T13:08:10.028Z,38.10
2022-08-22T13:10:44.776Z,37.90
2022-08-22T13:13:14.221Z,37.30
2022-08-22T13:15:53.756Z,37.00
2022-08-22T13:18:30.551Z,37.10
2022-08-22T13:21:01.355Z,37.20
2022-08-22T13:23:30.704Z,37.00
2022-08-22T13:26:32.971Z,36.20
2022-08-22T13:29:24.791Z,36.10
2022-08-22T13:31:55.205Z,36.20
2022-08-22T13:34:29.019Z,36.40
2022-08-22T13:36:59.343Z,36.40
2022-08-22T13:39:31.905Z,36.30
2022-08-22T13:42:00.193Z,36.30
2022-08-22T13:44:28.665Z,35.80
2022-08-22T13:47:13.719Z,35.50
2022-08-22T13:49:42.408Z,35.60
2022-08-22T13:52:29.234Z,35.30
2022-08-22T13:55:00.705Z,35.30
2022-08-22T13:57:30.577Z,35.30
2022-08-22T14:00:06.105Z,35.00
2022-08-22T14:02:55.159Z,35.00
2022-08-22T14:05:23.920Z,35.20
2022-08-22T14:07:57.044Z,35.10
2022-08-22T14:10:27.640Z,34.30
2022-08-22T14:13:17.634Z,34.60
2022-08-22T14:15:45.421Z,34.60
2022-08-22T14:18:16.916Z,34.80
2022-08-22T14:20:47.618Z,34.50
2022-08-22T14:23:22.283Z,34.90
2022-08-22T14:25:52.930Z,34.70
2022-08-22T14:28:23.260Z,34.40
2022-08-22T14:31:00.566Z,34.40
2022-08-22T14:33:33.241Z,34.60
2022-08-22T14:36:03.501Z,34.20
2022-08-22T14:38:35.558Z,34.10
2022-08-22T14:41:05.762Z,33.90
2022-08-22T14:43:40.439Z,34.10
2022-08-22T14:46:09.032Z,34.20
2022-08-22T14:48:41.863Z,33.50
2022-08-22T14:51:18.271Z,33.00
2022-08-22T14:53:50.085Z,32.60
2022-08-22T14:56:19.006Z,32.50
2022-08-22T14:58:48.917Z,31.70
2022-08-22T15:01:18.241Z,32.90
2022-08-22T15:03:51.605Z,33.40
2022-08-22T15:06:29.922Z,34.10
2022-08-22T15:08:57.801Z,34.30
2022-08-22T15:11:27.289Z,34.70
2022-08-22T15:14:01.540Z,34.50
2022-08-22T15:16:34.275Z,34.40
2022-08-22T15:19:06.728Z,34.60
2022-08-22T15:21:33.863Z,35.00
2022-08-22T15:24:10.345Z,35.10
2022-08-22T15:26:39.587Z,35.20
2022-08-22T15:29:08.855Z,35.10
2022-08-22T15:31:37.909Z,34.80
2022-08-22T15:34:12.356Z,34.70
2022-08-22T15:37:00.599Z,34.10
2022-08-22T15:39:37.987Z,33.70
2022-08-22T15:42:05.369Z,33.70
2022-08-22T15:44:44.262Z,34.00
2022-08-22T15:47:27.702Z,33.80
2022-08-22T15:49:59.647Z,33.70
2022-08-22T15:52:28.494Z,34.20
2022-08-22T15:55:20.270Z,34.60
2022-08-22T15:58:04.802Z,35.00
2022-08-22T16:00:33.437Z,35.50
2022-08-22T16:03:03.062Z,35.30
2022-08-22T16:05:41.120Z,35.40
2022-08-22T16:08:09.330Z,35.00
2022-08-22T16:10:38.269Z,34.50
2022-08-22T16:13:23.043Z,33.70
2022-08-22T16:16:00.707Z,33.30
2022-08-22T16:18:46.833Z,33.00
2022-08-22T16:21:18.862Z,32.70
2022-08-22T16:24:01.066Z,32.50
2022-08-22T16:26:36.902Z,32.30
2022-08-22T16:29:26.959Z,31.70
2022-08-22T16:31:56.844Z,31.80
2022-08-22T16:34:25.261Z,32.10
2022-08-22T16:37:23.264Z,32.40
2022-08-22T16:39:52.382Z,32.80
2022-08-22T16:42:24.653Z,33.00
2022-08-22T16:44:55.118Z,33.10
2022-08-22T16:47:24.865Z,32.90
2022-08-22T16:49:57.171Z,32.40
2022-08-22T16:52:54.654Z,32.70
2022-08-22T16:55:40.819Z,32.20
2022-08-22T16:58:15.124Z,32.00
2022-08-22T17:00:49.748Z,31.90
2022-08-22T17:03:22.556Z,32.10
2022-08-22T17:05:55.671Z,31.90
2022-08-22T17:08:27.858Z,31.50
2022-08-22T17:11:00.015Z,31.90
2022-08-22T17:13:36.762Z,32.10
2022-08-22T17:16:15.573Z,32.40
2022-08-22T17:18:49.576Z,32.00
2022-08-22T17:21:25.444Z,31.60
2022-08-22T17:23:58.033Z,31.50
2022-08-22T17:26:28.745Z,31.70
2022-08-22T17:29:04.660Z,31.50
2022-08-22T17:31:36.059Z,30.90
2022-08-22T17:34:09.201Z,31.10
2022-08-22T17:36:45.630Z,31.20
2022-08-22T17:39:18.841Z,31.00
2022-08-22T17:41:50.175Z,30.90
2022-08-22T17:44:23.142Z,30.70
2022-08-22T17:46:52.973Z,30.40
2022-08-22T17:49:23.428Z,30.40
2022-08-22T17:51:53.824Z,30.20
2022-08-22T17:54:29.502Z,30.20
2022-08-22T17:57:00.466Z,30.20
2022-08-22T17:59:39.806Z,29.90
2022-08-22T18:02:11.574Z,29.20
2022-08-22T18:04:47.381Z,29.50
2022-08-22T18:07:25.215Z,29.20
2022-08-22T18:09:53.842Z,29.20
2022-08-22T18:12:22.578Z,29.30
2022-08-22T18:14:52.567Z,29.30
2022-08-22T18:17:21.771Z,29.20
2022-08-22T18:19:56.047Z,29.40
2022-08-22T18:22:27.587Z,29.30
2022-08-22T18:24:57.726Z,29.30
2022-08-22T18:27:29.679Z,29.40
2022-08-22T18:30:15.677Z,29.20
2022-08-22T18:32:48.250Z,29.10
2022-08-22T18:35:18.357Z,28.90
2022-08-22T18:37:55.530Z,28.70
2022-08-22T18:40:43.460Z,28.50
2022-08-22T18:43:18.256Z,28.20
2022-08-22T18:46:04.096Z,27.90
2022-08-22T18:48:37.038Z,27.60
2022-08-22T18:51:24.673Z,27.40
2022-08-22T18:53:58.206Z,27.10
2022-08-22T18:56:43.460Z,26.90
2022-08-22T18:59:21.368Z,26.70
2022-08-22T19:01:54.369Z,26.50
2022-08-22T19:05:13.856Z,26.40
2022-08-22T19:07:51.066Z,26.30
2022-08-22T19:10:30.403Z,26.20
2022-08-22T19:13:04.233Z,26.00
2022-08-22T19:15:36.018Z,25.80
2022-08-22T19:18:26.612Z,25.70
2022-08-22T19:21:34.183Z,25.60
2022-08-22T19:24:05.491Z,25.60
2022-08-22T19:26:35.398Z,25.60
2022-08-22T19:29:08.767Z,25.60
2022-08-22T19:32:02.916Z,25.60
2022-08-22T19:34:46.977Z,25.60
2022-08-22T19:37:32.574Z,25.60
2022-08-22T19:40:05.025Z,25.50
2022-08-22T19:42:34.407Z,25.50
2022-08-22T19:45:03.658Z,25.30
2022-08-22T19:47:32.215Z,25.40
2022-08-22T19:50:00.933Z,25.40
2022-08-22T19:52:32.652Z,25.30
2022-08-22T19:55:04.936Z,25.30
2022-08-22T19:57:36.713Z,25.20
2022-08-22T20:00:08.007Z,25.10
2022-08-22T20:02:38.807Z,25.10
2022-08-22T20:05:27.565Z,25.00
2022-08-22T20:08:02.635Z,25.00
2022-08-22T20:10:36.897Z,24.90
2022-08-22T20:13:05.763Z,24.80
2022-08-22T20:15:54.868Z,24.80
2022-08-22T20:19:05.026Z,24.80
2022-08-22T20:21:42.239Z,24.60
2022-08-22T20:24:12.844Z,24.40
2022-08-22T20:26:57.303Z,24.30
2022-08-22T20:29:29.712Z,24.10
2022-08-22T20:31:58.927Z,24.10
2022-08-22T20:34:27.842Z,24.10
2022-08-22T20:37:09.815Z,24.00
2022-08-22T20:39:58.776Z,24.00
2022-08-22T20:42:26.295Z,24.00
2022-08-22T20:44:54.101Z,23.90
2022-08-22T20:47:23.090Z,23.90
2022-08-22T20:49:51.705Z,23.90
2022-08-22T20:52:25.829Z,23.90
2022-08-22T20:55:02.709Z,23.90
2022-08-22T21:00:11.911Z,23.90
2022-08-22T21:02:40.930Z,24.00
2022-08-22T21:05:18.484Z,24.10
2022-08-22T21:07:46.666Z,24.10
2022-08-22T21:10:36.671Z,24.20
2022-08-22T21:13:05.443Z,24.20
2022-08-22T21:15:35.476Z,24.20
2022-08-22T21:18:03.619Z,24.20
2022-08-22T21:20:32.256Z,24.20
2022-08-22T21:25:19.952Z,24.30
2022-08-22T21:27:48.136Z,24.20
2022-08-22T21:30:21.383Z,24.20
2022-08-22T21:32:52.408Z,24.30
2022-08-22T21:35:24.676Z,24.20
2022-08-22T21:37:51.846Z,24.30
2022-08-22T21:40:21.628Z,24.30
2022-08-22T21:42:58.561Z,24.30
2022-08-22T21:45:27.002Z,24.30
2022-08-22T21:47:53.988Z,24.20
2022-08-22T21:50:34.940Z,24.20
2022-08-22T21:53:04.087Z,24.20
2022-08-22T21:55:34.416Z,24.20
2022-08-22T21:58:35.562Z,24.20
2022-08-22T22:01:24.886Z,24.10
2022-08-22T22:03:54.147Z,24.10
2022-08-22T22:06:21.333Z,24.10
2022-08-22T22:08:48.940Z,24.00
2022-08-22T22:11:16.152Z,24.00
2022-08-22T22:13:44.047Z,23.90
2022-08-22T22:16:14.283Z,23.90
2022-08-22T22:18:41.331Z,23.90
2022-08-22T22:21:09.932Z,23.80
2022-08-22T22:23:36.899Z,23.80
2022-08-22T22:26:04.842Z,23.70
2022-08-22T22:28:33.557Z,23.70
2022-08-22T22:31:00.692Z,23.70
2022-08-22T22:33:29.081Z,23.70
2022-08-22T22:35:57.531Z,23.70
2022-08-22T22:38:25.980Z,23.70
2022-08-22T22:40:55.961Z,23.60
2022-08-22T22:43:22.919Z,23.60
2022-08-22T22:45:49.999Z,23.60
2022-08-22T22:48:18.836Z,23.50
2022-08-22T22:50:52.248Z,23.50
2022-08-22T22:53:21.525Z,23.50
2022-08-22T22:56:09.591Z,23.50
2022-08-22T22:58:37.460Z,23.40
2022-08-22T23:02:16.601Z,23.40
2022-08-22T23:04:44.483Z,23.30
2022-08-22T23:07:13.486Z,23.30
2022-08-22T23:09:44.908Z,23.30
2022-08-22T23:12:12.302Z,23.20
2022-08-22T23:14:39.468Z,23.20
2022-08-22T23:17:07.157Z,23.20
2022-08-22T23:19:38.768Z,23.10
2022-08-22T23:22:06.698Z,23.00
2022-08-22T23:24:40.430Z,22.90
2022-08-22T23:27:08.983Z,22.70
2022-08-22T23:29:37.303Z,22.60
2022-08-22T23:32:05.002Z,22.60
2022-08-22T23:34:33.151Z,22.50
2022-08-22T23:37:02.577Z,22.50
2022-08-22T23:39:34.850Z,22.50
2022-08-22T23:42:02.303Z,22.40
2022-08-22T23:44:31.297Z,22.40
2022-08-22T23:46:58.536Z,22.40
2022-08-22T23:49:25.468Z,22.30
2022-08-22T23:51:52.510Z,22.30
2022-08-22T23:54:21.443Z,22.20
2022-08-22T23:56:50.391Z,22.10
2022-08-22T23:59:18.708Z,22.00
